createdAt,value
2019-05-14T00:01:22.235Z,10.19
2019-05-14T00:03:51.973Z,10.15
2019-05-14T00:06:22.031Z,10.11
2019-05-14T00:08:52.338Z,10.14
2019-05-14T00:11:22.094Z,10.22
2019-05-14T00:13:52.149Z,10.12
2019-05-14T00:16:24.240Z,10.08
2019-05-14T00:18:53.352Z,10.03
2019-05-14T00:21:22.975Z,10.07
2019-05-14T00:23:52.622Z,10.05
2019-05-14T00:26:22.228Z,10.00
2019-05-14T00:28:51.868Z,9.90
2019-05-14T00:31:21.505Z,9.84
2019-05-14T00:33:51.411Z,9.83
2019-05-14T00:36:21.502Z,9.74
2019-05-14T00:38:51.510Z,9.67
2019-05-14T00:41:21.605Z,9.63
2019-05-14T00:43:51.580Z,9.60
2019-05-14T00:46:21.353Z,9.56
2019-05-14T00:48:51.508Z,9.55
2019-05-14T00:51:21.598Z,9.55
2019-05-14T00:53:51.706Z,9.52
2019-05-14T00:56:21.758Z,9.50
2019-05-14T00:58:52.184Z,9.47
2019-05-14T01:01:22.102Z,9.43
2019-05-14T01:03:52.231Z,9.42
2019-05-14T01:06:22.019Z,9.41
2019-05-14T01:08:52.005Z,9.42
2019-05-14T01:11:22.127Z,9.45
2019-05-14T01:13:52.331Z,9.34
2019-05-14T01:16:22.483Z,9.40
2019-05-14T01:18:52.224Z,9.36
2019-05-14T01:22:07.272Z,9.32
2019-05-14T01:24:36.915Z,9.26
2019-05-14T01:27:06.541Z,9.17
2019-05-14T01:29:36.172Z,9.15
2019-05-14T01:32:05.783Z,9.04
2019-05-14T01:34:35.418Z,8.95
2019-05-14T01:37:05.035Z,8.95
2019-05-14T01:39:34.669Z,8.95
2019-05-14T01:42:04.303Z,8.96
2019-05-14T01:44:33.898Z,8.97
2019-05-14T01:47:03.529Z,8.94
2019-05-14T01:49:33.150Z,8.90
2019-05-14T01:52:02.855Z,8.89
2019-05-14T01:54:32.471Z,8.82
2019-05-14T01:57:02.313Z,8.82
2019-05-14T01:59:32.490Z,8.81
2019-05-14T02:02:02.495Z,8.81
2019-05-14T02:04:32.211Z,8.79
2019-05-14T02:07:02.410Z,8.70
2019-05-14T02:09:32.831Z,8.65
2019-05-14T02:12:02.462Z,8.61
2019-05-14T02:14:32.156Z,8.48
2019-05-14T02:17:02.091Z,8.44
2019-05-14T02:19:32.000Z,8.42
2019-05-14T02:22:02.025Z,8.59
2019-05-14T02:24:32.336Z,8.49
2019-05-14T02:27:02.184Z,8.49
2019-05-14T02:29:32.223Z,8.52
2019-05-14T02:32:02.041Z,8.49
2019-05-14T02:34:31.677Z,8.45
2019-05-14T02:37:01.288Z,8.43
2019-05-14T02:39:30.928Z,8.38
2019-05-14T02:42:00.783Z,8.19
2019-05-14T02:44:30.437Z,8.18
2019-05-14T02:47:00.033Z,8.09
2019-05-14T02:49:30.269Z,8.20
2019-05-14T02:52:00.028Z,8.13
2019-05-14T02:54:30.065Z,8.25
2019-05-14T02:57:00.216Z,8.13
2019-05-14T02:59:30.656Z,7.78
2019-05-14T03:02:00.882Z,7.75
2019-05-14T03:04:30.495Z,7.67
2019-05-14T03:07:01.059Z,7.67
2019-05-14T03:09:30.881Z,7.79
2019-05-14T03:12:00.656Z,7.89
2019-05-14T03:14:30.546Z,7.95
2019-05-14T03:17:00.667Z,8.17
2019-05-14T03:19:30.382Z,8.21
2019-05-14T03:22:00.548Z,8.18
2019-05-14T03:24:30.334Z,8.06
2019-05-14T03:27:00.131Z,8.04
2019-05-14T03:29:30.671Z,7.91
2019-05-14T03:32:02.855Z,7.88
2019-05-14T03:34:33.687Z,7.87
2019-05-14T03:37:04.304Z,7.78
2019-05-14T03:39:34.336Z,7.79
2019-05-14T03:42:04.160Z,7.74
2019-05-14T03:44:33.934Z,7.73
2019-05-14T03:47:05.433Z,7.66
2019-05-14T03:49:35.195Z,7.66
2019-05-14T03:52:04.875Z,7.61
2019-05-14T03:54:34.659Z,7.64
2019-05-14T03:57:04.496Z,7.44
2019-05-14T03:59:34.440Z,7.35
2019-05-14T04:02:04.406Z,7.37
2019-05-14T04:04:34.318Z,7.40
2019-05-14T04:07:04.851Z,7.53
2019-05-14T04:09:35.180Z,7.50
2019-05-14T04:12:10.045Z,7.43
2019-05-14T04:14:43.661Z,7.47
2019-05-14T04:17:23.653Z,7.47
2019-05-14T04:19:49.514Z,7.36
2019-05-14T04:22:24.116Z,7.31
2019-05-14T04:24:59.445Z,7.31
2019-05-14T04:27:32.158Z,7.45
2019-05-14T04:30:03.053Z,7.44
2019-05-14T04:32:32.756Z,7.46
2019-05-14T04:35:03.066Z,7.42
2019-05-14T04:37:32.841Z,7.39
2019-05-14T04:40:02.586Z,7.39
2019-05-14T04:42:32.312Z,7.45
2019-05-14T04:45:05.627Z,7.36
2019-05-14T04:47:37.370Z,7.34
2019-05-14T04:50:10.568Z,7.44
2019-05-14T04:52:40.360Z,7.44
2019-05-14T04:55:10.261Z,7.42
2019-05-14T04:57:40.096Z,7.37
2019-05-14T05:00:12.318Z,7.30
2019-05-14T05:02:41.691Z,7.34
2019-05-14T05:05:11.448Z,7.42
2019-05-14T05:07:41.065Z,7.47
2019-05-14T05:10:11.159Z,7.57
2019-05-14T05:12:40.763Z,7.63
2019-05-14T05:15:10.641Z,7.68
2019-05-14T05:17:48.091Z,7.65
2019-05-14T05:20:12.028Z,7.73
2019-05-14T05:22:41.639Z,7.79
2019-05-14T05:25:11.776Z,7.82
2019-05-14T05:27:41.391Z,7.83
2019-05-14T05:30:11.940Z,7.84
2019-05-14T05:32:41.560Z,7.90
2019-05-14T05:35:11.307Z,7.94
2019-05-14T05:37:40.951Z,7.97
2019-05-14T05:40:11.751Z,7.99
2019-05-14T05:42:41.392Z,8.03
2019-05-14T05:45:12.406Z,8.16
2019-05-14T05:47:54.446Z,8.09
2019-05-14T05:50:13.616Z,8.08
2019-05-14T05:52:43.268Z,8.12
2019-05-14T05:55:13.090Z,8.18
2019-05-14T05:57:42.810Z,8.26
2019-05-14T06:00:13.504Z,8.26
2019-05-14T06:02:43.118Z,8.28
2019-05-14T06:05:12.901Z,8.38
2019-05-14T06:07:42.518Z,8.41
2019-05-14T06:10:12.470Z,8.45
2019-05-14T06:12:42.082Z,8.49
2019-05-14T06:15:14.419Z,8.53
2019-05-14T06:17:43.968Z,8.52
2019-05-14T06:20:14.011Z,8.56
2019-05-14T06:22:43.781Z,8.61
2019-05-14T06:25:13.632Z,8.65
2019-05-14T06:27:43.247Z,8.62
2019-05-14T06:30:14.005Z,8.62
2019-05-14T06:32:43.620Z,8.66
2019-05-14T06:35:13.836Z,8.75
2019-05-14T06:37:43.487Z,8.79
2019-05-14T06:40:13.507Z,8.80
2019-05-14T06:42:43.146Z,8.85
2019-05-14T06:45:12.906Z,8.85
2019-05-14T06:47:42.539Z,8.91
2019-05-14T06:50:12.360Z,8.97
2019-05-14T06:52:42.004Z,8.97
2019-05-14T06:55:11.923Z,9.06
2019-05-14T06:57:41.569Z,9.06
2019-05-14T07:00:11.583Z,9.07
2019-05-14T07:02:44.086Z,9.11
2019-05-14T07:05:13.736Z,9.22
2019-05-14T07:07:43.349Z,9.29
2019-05-14T07:10:13.130Z,9.40
2019-05-14T07:12:42.734Z,9.39
2019-05-14T07:15:12.681Z,9.42
2019-05-14T07:17:42.298Z,9.55
2019-05-14T07:20:12.234Z,9.58
2019-05-14T07:22:41.848Z,9.71
2019-05-14T07:25:11.886Z,9.73
2019-05-14T07:27:41.493Z,9.83
2019-05-14T07:30:12.143Z,9.83
2019-05-14T07:32:41.757Z,9.82
2019-05-14T07:35:11.905Z,9.86
2019-05-14T07:37:41.529Z,9.90
2019-05-14T07:40:11.427Z,9.95
2019-05-14T07:42:41.085Z,9.99
2019-05-14T07:45:11.593Z,10.01
2019-05-14T07:47:41.237Z,10.05
2019-05-14T07:50:11.871Z,10.11
2019-05-14T07:52:49.736Z,10.23
2019-05-14T07:55:13.482Z,10.31
2019-05-14T07:57:43.106Z,10.25
2019-05-14T08:00:13.444Z,10.33
2019-05-14T08:02:43.133Z,10.26
2019-05-14T08:05:13.024Z,10.37
2019-05-14T08:07:42.636Z,10.52
2019-05-14T08:10:13.085Z,10.59
2019-05-14T08:12:42.706Z,10.77
2019-05-14T08:15:18.922Z,10.78
2019-05-14T08:17:48.023Z,10.76
2019-05-14T08:20:18.465Z,10.79
2019-05-14T08:22:49.068Z,10.85
2019-05-14T08:25:19.102Z,10.91
2019-05-14T08:27:48.732Z,11.01
2019-05-14T08:30:18.920Z,11.07
2019-05-14T08:32:49.053Z,11.13
2019-05-14T08:35:18.881Z,11.17
2019-05-14T08:37:49.213Z,11.26
2019-05-14T08:40:20.985Z,11.29
2019-05-14T08:42:51.059Z,11.44
2019-05-14T08:45:20.827Z,11.57
2019-05-14T08:47:50.442Z,11.58
2019-05-14T08:50:20.293Z,11.70
2019-05-14T08:52:49.932Z,11.78
2019-05-14T08:55:19.577Z,11.88
2019-05-14T08:57:49.279Z,12.02
2019-05-14T09:00:19.826Z,12.17
2019-05-14T09:02:49.514Z,12.33
2019-05-14T09:05:19.228Z,12.25
2019-05-14T09:07:49.166Z,12.31
2019-05-14T09:10:19.412Z,12.32
2019-05-14T09:12:49.329Z,12.38
2019-05-14T09:15:18.987Z,12.42
2019-05-14T09:17:48.855Z,12.47
2019-05-14T09:20:19.765Z,12.52
2019-05-14T09:22:49.438Z,12.50
2019-05-14T09:25:19.264Z,12.47
2019-05-14T09:27:49.587Z,12.48
2019-05-14T09:30:19.399Z,12.47
2019-05-14T09:32:49.512Z,12.35
2019-05-14T09:35:19.250Z,12.50
2019-05-14T09:37:51.390Z,12.45
2019-05-14T09:40:20.384Z,12.44
2019-05-14T09:42:50.291Z,12.55
2019-05-14T09:45:20.087Z,12.65
2019-05-14T09:47:50.743Z,12.63
2019-05-14T09:50:23.784Z,12.73
2019-05-14T09:52:53.438Z,12.76
2019-05-14T09:55:23.094Z,12.82
2019-05-14T09:57:52.704Z,12.82
2019-05-14T10:00:23.497Z,12.81
2019-05-14T10:02:53.106Z,12.84
2019-05-14T10:05:22.821Z,12.98
2019-05-14T10:07:52.813Z,13.00
2019-05-14T10:10:22.453Z,13.01
2019-05-14T10:12:56.834Z,13.11
2019-05-14T10:15:23.510Z,13.06
2019-05-14T10:17:53.140Z,13.17
2019-05-14T10:20:36.343Z,13.21
2019-05-14T10:22:54.651Z,13.21
2019-05-14T10:25:24.556Z,13.04
2019-05-14T10:27:54.194Z,13.10
2019-05-14T10:30:24.052Z,13.04
2019-05-14T10:32:53.698Z,13.21
2019-05-14T10:35:23.392Z,13.34
2019-05-14T10:37:54.455Z,13.34
2019-05-14T10:40:24.459Z,13.35
2019-05-14T10:42:54.267Z,13.36
2019-05-14T10:45:24.047Z,13.34
2019-05-14T10:47:53.714Z,13.47
2019-05-14T10:50:23.475Z,13.76
2019-05-14T10:52:53.128Z,13.90
2019-05-14T10:55:22.744Z,14.29
2019-05-14T10:57:54.348Z,14.33
2019-05-14T11:00:24.379Z,14.30
2019-05-14T11:02:54.008Z,14.17
2019-05-14T11:05:23.715Z,13.99
2019-05-14T11:07:53.333Z,13.82
2019-05-14T11:10:23.121Z,13.74
2019-05-14T11:12:55.016Z,13.81
2019-05-14T11:15:24.184Z,13.78
2019-05-14T11:17:53.801Z,13.88
2019-05-14T11:20:23.906Z,14.15
2019-05-14T11:22:53.518Z,14.38
2019-05-14T11:25:23.452Z,14.64
2019-05-14T11:27:53.192Z,15.05
2019-05-14T11:30:23.158Z,15.32
2019-05-14T11:32:52.947Z,15.15
2019-05-14T11:35:22.612Z,14.95
2019-05-14T11:37:52.405Z,15.06
2019-05-14T11:40:22.630Z,14.77
2019-05-14T11:42:52.271Z,14.82
2019-05-14T11:45:22.398Z,14.60
2019-05-14T11:47:52.045Z,14.81
2019-05-14T11:50:21.975Z,15.31
2019-05-14T11:52:51.616Z,15.81
2019-05-14T11:55:21.369Z,16.22
2019-05-14T11:57:51.012Z,16.04
2019-05-14T12:00:21.311Z,15.64
2019-05-14T12:02:51.025Z,15.53
2019-05-14T12:05:20.653Z,15.39
2019-05-14T12:07:50.313Z,15.54
2019-05-14T12:10:20.072Z,15.85
2019-05-14T12:12:49.696Z,16.36
2019-05-14T12:15:19.488Z,16.41
2019-05-14T12:17:51.034Z,16.31
2019-05-14T12:20:21.421Z,16.47
2019-05-14T12:22:51.131Z,16.56
2019-05-14T12:25:20.839Z,16.46
2019-05-14T12:27:50.469Z,16.68
2019-05-14T12:30:20.351Z,17.02
2019-05-14T12:32:50.283Z,17.23
2019-05-14T12:35:20.122Z,17.10
2019-05-14T12:37:49.767Z,17.45
2019-05-14T12:40:19.922Z,17.32
2019-05-14T12:42:50.016Z,17.49
2019-05-14T12:45:20.248Z,17.95
2019-05-14T12:47:50.243Z,17.86
2019-05-14T12:50:20.177Z,17.60
2019-05-14T12:52:49.865Z,17.45
2019-05-14T12:55:19.806Z,17.48
2019-05-14T12:57:49.590Z,17.71
2019-05-14T13:00:20.018Z,18.00
2019-05-14T13:02:49.653Z,18.01
2019-05-14T13:05:19.358Z,17.72
2019-05-14T13:07:51.140Z,17.33
2019-05-14T13:10:20.588Z,17.07
2019-05-14T13:12:50.208Z,17.42
2019-05-14T13:15:20.376Z,17.48
2019-05-14T13:17:49.985Z,16.96
2019-05-14T13:20:21.509Z,16.57
2019-05-14T13:22:51.130Z,16.40
2019-05-14T13:25:20.827Z,16.21
2019-05-14T13:27:50.474Z,16.06
2019-05-14T13:30:20.904Z,16.11
2019-05-14T13:32:50.788Z,16.17
2019-05-14T13:35:20.500Z,16.08
2019-05-14T13:37:50.146Z,16.05
2019-05-14T13:40:21.416Z,16.52
2019-05-14T13:42:51.212Z,16.69
2019-05-14T13:45:21.049Z,16.73
2019-05-14T13:47:50.661Z,16.63
2019-05-14T13:50:20.637Z,16.39
2019-05-14T13:53:03.204Z,16.18
2019-05-14T13:55:21.700Z,16.05
2019-05-14T13:57:51.328Z,15.87
2019-05-14T14:00:21.485Z,15.73
2019-05-14T14:02:51.110Z,16.24
2019-05-14T14:05:20.843Z,16.68
2019-05-14T14:07:50.456Z,17.34
2019-05-14T14:10:21.573Z,17.86
2019-05-14T14:12:51.204Z,18.46
2019-05-14T14:15:20.863Z,18.48
2019-05-14T14:17:50.486Z,18.09
2019-05-14T14:20:20.173Z,17.52
2019-05-14T14:22:49.815Z,17.09
2019-05-14T14:25:19.431Z,16.69
2019-05-14T14:27:49.080Z,16.81
2019-05-14T14:30:19.622Z,17.13
2019-05-14T14:32:49.716Z,17.58
2019-05-14T14:35:23.380Z,18.12
2019-05-14T14:37:51.043Z,18.48
2019-05-14T14:40:22.468Z,19.10
2019-05-14T14:42:52.461Z,19.16
2019-05-14T14:45:22.368Z,19.06
2019-05-14T14:47:52.137Z,18.13
2019-05-14T14:50:21.849Z,17.49
2019-05-14T14:52:51.487Z,17.00
2019-05-14T14:55:21.283Z,17.28
2019-05-14T14:57:54.609Z,17.95
2019-05-14T15:00:22.364Z,18.84
2019-05-14T15:02:51.990Z,19.36
2019-05-14T15:05:21.781Z,19.17
2019-05-14T15:07:51.413Z,18.55
2019-05-14T15:10:21.141Z,17.81
2019-05-14T15:12:50.784Z,17.25
2019-05-14T15:15:20.471Z,16.88
2019-05-14T15:17:50.122Z,16.59
2019-05-14T15:20:19.757Z,16.76
2019-05-14T15:22:49.716Z,17.19
2019-05-14T15:25:19.505Z,17.56
2019-05-14T15:27:49.267Z,17.58
2019-05-14T15:30:19.253Z,17.34
2019-05-14T15:32:51.392Z,17.10
2019-05-14T15:35:20.397Z,16.70
2019-05-14T15:37:50.028Z,16.66
2019-05-14T15:40:22.466Z,16.63
2019-05-14T15:42:52.173Z,16.37
2019-05-14T15:45:21.815Z,16.35
2019-05-14T15:47:51.440Z,16.02
2019-05-14T15:50:21.147Z,16.06
2019-05-14T15:52:50.783Z,15.71
2019-05-14T15:55:20.415Z,15.69
2019-05-14T15:57:50.033Z,15.87
2019-05-14T16:00:20.703Z,15.55
2019-05-14T16:02:50.547Z,15.30
2019-05-14T16:05:20.250Z,15.37
2019-05-14T16:07:49.862Z,15.81
2019-05-14T16:10:21.715Z,16.69
2019-05-14T16:12:51.052Z,17.36
2019-05-14T16:15:20.805Z,18.11
2019-05-14T16:18:05.712Z,18.41
2019-05-14T16:20:21.935Z,18.67
2019-05-14T16:22:52.327Z,18.52
2019-05-14T16:25:22.100Z,17.89
2019-05-14T16:27:51.774Z,17.41
2019-05-14T16:30:21.761Z,17.25
2019-05-14T16:32:51.435Z,17.41
2019-05-14T16:35:21.469Z,17.83
2019-05-14T16:37:51.120Z,18.20
2019-05-14T16:40:20.873Z,18.79
2019-05-14T16:42:50.462Z,19.23
2019-05-14T16:45:20.181Z,18.99
2019-05-14T16:47:49.803Z,18.97
2019-05-14T16:50:19.595Z,18.87
2019-05-14T16:52:49.570Z,18.10
2019-05-14T16:55:26.820Z,17.39
2019-05-14T16:57:50.892Z,17.09
2019-05-14T17:00:21.046Z,16.70
2019-05-14T17:02:50.688Z,16.49
2019-05-14T17:05:20.435Z,16.33
2019-05-14T17:07:50.055Z,16.01
2019-05-14T17:10:19.684Z,15.84
2019-05-14T17:12:56.575Z,15.67
2019-05-14T17:15:20.699Z,15.67
2019-05-14T17:17:50.351Z,15.44
2019-05-14T17:20:24.065Z,15.29
2019-05-14T17:22:51.338Z,15.18
2019-05-14T17:25:26.994Z,15.14
2019-05-14T17:27:52.341Z,15.20
2019-05-14T17:30:21.966Z,15.10
2019-05-14T17:32:51.824Z,15.08
2019-05-14T17:35:21.520Z,14.98
2019-05-14T17:37:51.136Z,14.95
2019-05-14T17:40:21.043Z,14.92
2019-05-14T17:42:50.704Z,14.77
2019-05-14T17:45:20.421Z,14.65
2019-05-14T17:47:50.048Z,14.67
2019-05-14T17:50:19.854Z,14.62
2019-05-14T17:52:56.281Z,14.61
2019-05-14T17:55:20.875Z,14.62
2019-05-14T17:57:58.342Z,14.53
2019-05-14T18:00:22.126Z,14.40
2019-05-14T18:02:51.756Z,14.14
2019-05-14T18:05:21.378Z,14.09
2019-05-14T18:07:51.015Z,14.21
2019-05-14T18:10:20.661Z,14.15
2019-05-14T18:12:50.292Z,14.21
2019-05-14T18:15:19.909Z,14.12
2019-05-14T18:17:49.713Z,14.02
2019-05-14T18:20:20.103Z,14.00
2019-05-14T18:22:49.702Z,14.13
2019-05-14T18:25:19.323Z,14.02
2019-05-14T18:27:49.890Z,13.86
2019-05-14T18:30:20.003Z,13.88
2019-05-14T18:32:49.695Z,13.79
2019-05-14T18:35:19.329Z,13.58
2019-05-14T18:37:48.991Z,13.64
2019-05-14T18:40:18.818Z,13.68
2019-05-14T18:42:48.438Z,13.80
2019-05-14T18:45:19.042Z,13.78
2019-05-14T18:47:48.791Z,13.72
2019-05-14T18:50:19.620Z,13.54
2019-05-14T18:52:49.635Z,13.63
2019-05-14T18:55:19.740Z,13.63
2019-05-14T18:57:49.355Z,13.60
2019-05-14T19:00:20.011Z,13.48
2019-05-14T19:02:49.633Z,13.42
2019-05-14T19:05:19.507Z,13.54
2019-05-14T19:07:49.129Z,13.58
2019-05-14T19:10:18.765Z,13.49
2019-05-14T19:12:50.190Z,13.55
2019-05-14T19:15:19.875Z,13.36
2019-05-14T19:17:49.522Z,13.23
2019-05-14T19:20:19.704Z,13.26
2019-05-14T19:22:49.351Z,13.40
2019-05-14T19:25:18.970Z,13.35
2019-05-14T19:27:48.854Z,13.27
2019-05-14T19:30:19.337Z,13.16
2019-05-14T19:32:49.040Z,13.05
2019-05-14T19:35:19.272Z,13.07
2019-05-14T19:37:49.141Z,12.96
2019-05-14T19:40:19.185Z,13.03
2019-05-14T19:42:48.843Z,12.98
2019-05-14T19:45:18.797Z,12.99
2019-05-14T19:47:49.373Z,12.91
2019-05-14T19:50:19.465Z,12.91
2019-05-14T19:52:49.093Z,12.96
2019-05-14T19:55:19.057Z,12.85
2019-05-14T19:57:49.112Z,12.82
2019-05-14T20:00:28.819Z,12.87
2019-05-14T20:02:58.316Z,12.85
2019-05-14T20:05:28.607Z,12.77
2019-05-14T20:07:58.550Z,12.65
2019-05-14T20:10:29.159Z,12.62
2019-05-14T20:12:59.314Z,12.55
2019-05-14T20:15:28.995Z,12.51
2019-05-14T20:17:58.683Z,12.31
2019-05-14T20:20:28.948Z,12.16
2019-05-14T20:22:59.132Z,12.28
2019-05-14T20:25:28.825Z,12.31
2019-05-14T20:27:58.870Z,12.34
2019-05-14T20:30:29.482Z,12.31
2019-05-14T20:33:01.171Z,12.28
2019-05-14T20:35:34.610Z,12.44
2019-05-14T20:38:02.151Z,12.38
2019-05-14T20:40:31.807Z,12.26
2019-05-14T20:43:01.463Z,12.24
2019-05-14T20:45:31.156Z,12.24
2019-05-14T20:48:00.825Z,12.28
2019-05-14T20:50:30.513Z,12.18
2019-05-14T20:53:00.174Z,12.22
2019-05-14T20:55:29.790Z,12.45
2019-05-14T20:57:59.410Z,12.26
2019-05-14T21:00:29.439Z,12.18
2019-05-14T21:03:00.904Z,12.03
2019-05-14T21:05:30.541Z,12.04
2019-05-14T21:08:00.164Z,12.02
2019-05-14T21:10:29.884Z,11.99
2019-05-14T21:13:01.143Z,11.88
2019-05-14T21:15:30.862Z,11.88
2019-05-14T21:18:00.495Z,11.89
2019-05-14T21:20:30.160Z,11.87
2019-05-14T21:22:59.844Z,11.81
2019-05-14T21:25:29.810Z,11.65
2019-05-14T21:27:59.502Z,11.71
2019-05-14T21:30:29.843Z,11.75
2019-05-14T21:33:01.291Z,11.71
2019-05-14T21:35:31.307Z,11.72
2019-05-14T21:38:00.928Z,11.72
2019-05-14T21:40:32.172Z,11.75
2019-05-14T21:43:01.977Z,11.73
2019-05-14T21:45:31.740Z,11.69
2019-05-14T21:48:01.390Z,11.68
2019-05-14T21:50:31.011Z,11.62
2019-05-14T21:53:00.653Z,11.69
2019-05-14T21:55:30.275Z,11.65
2019-05-14T21:57:59.930Z,11.56
2019-05-14T22:00:42.037Z,11.56
2019-05-14T22:03:10.574Z,11.64
2019-05-14T22:05:40.443Z,11.72
2019-05-14T22:08:10.131Z,11.67
2019-05-14T22:10:40.162Z,11.59
2019-05-14T22:13:09.940Z,11.64
2019-05-14T22:15:39.735Z,11.59
2019-05-14T22:18:17.412Z,11.38
2019-05-14T22:20:41.032Z,11.48
2019-05-14T22:23:10.655Z,11.38
2019-05-14T22:25:40.297Z,11.43
2019-05-14T22:28:15.385Z,11.47
2019-05-14T22:30:41.274Z,11.38
2019-05-14T22:33:10.909Z,11.31
2019-05-14T22:35:40.552Z,11.27
2019-05-14T22:38:10.199Z,11.27
2019-05-14T22:40:39.821Z,11.24
2019-05-14T22:43:09.549Z,11.26
2019-05-14T22:45:39.160Z,11.24
2019-05-14T22:48:09.445Z,11.22
2019-05-14T22:50:41.346Z,11.27
2019-05-14T22:53:10.585Z,11.33
2019-05-14T22:55:40.204Z,11.25
2019-05-14T22:58:24.520Z,11.29
2019-05-14T23:00:47.192Z,11.17
2019-05-14T23:03:13.037Z,10.99
2019-05-14T23:05:42.654Z,10.93
2019-05-14T23:08:12.289Z,10.95
2019-05-14T23:10:41.941Z,10.95
2019-05-14T23:13:11.561Z,10.87
2019-05-14T23:15:41.205Z,10.85
2019-05-14T23:18:10.894Z,10.74
2019-05-14T23:20:40.540Z,10.66
2019-05-14T23:23:10.168Z,10.62
2019-05-14T23:25:40.168Z,10.58
2019-05-14T23:28:09.855Z,10.51
2019-05-14T23:30:39.545Z,10.55
2019-05-14T23:33:09.211Z,10.56
2019-05-14T23:35:39.209Z,10.54
2019-05-14T23:38:09.122Z,10.60
2019-05-14T23:40:39.175Z,10.57
2019-05-14T23:43:08.821Z,10.59
2019-05-14T23:45:38.436Z,10.54
2019-05-14T23:48:09.513Z,10.49
2019-05-14T23:50:39.341Z,10.33
2019-05-14T23:53:09.397Z,10.26
2019-05-14T23:55:39.123Z,10.23
2019-05-14T23:58:08.752Z,10.42
